Deerfield, New Hampshire
Current Conditions -  °F | °C
As of 6:51 AM on Saturday 25 Oct 2014 (Local Time) from KCON Reporting Station
Clear Clear  
Wind Chill: 36°   Ceiling: Unl
Heat Index: 36°   Visibility: 10mi
Dew Point: 35°   Wind: 0mph
Humidity: 97%   Direction: NA
Pressure: 29.74"   Gusts: NA
Location:  43.15°N, 71.22°W
Report Text: KCON 251051Z AUTO 00000KT 10SM CLR 02/02 A2974 RMK AO2 SLP073 T00220017
Loading
Personal Weather Stations






























Interactive Weather Map
Tropical Storm Tracking
New forecast layout! Learn more

10-Day Weather Forecast

Advertisements
Track Severe Weather on mobile